ABZ weather

Aberdeen Dyce Airport
Aberdeen, Scotland, United Kingdom

Public forecast

Using degrees Celsius for public forecast. Weather courtesy of forecast.io.

Current aviation weather report (METAR) for Aberdeen Dyce Airport

Retrieved 2019/11/21 17:20 UTC (18 minutes ago):

EGPD 211720Z AUTO VRB02KT 9999 SCT018 SCT032 OVC038 07/05 Q1007

Aviation forecast (TAF) for Aberdeen Dyce Airport

Retrieved 2019/11/21 12:00 UTC (6 hours ago):

TAF EGPD 211057Z 2112/2212 13009KT 9999 FEW015 SCT025 PROB40 TEMPO 2112/2121 7000 SHRA BKN014 PROB40 TEMPO 2121/2212 4000 SHRA RADZ BKN008